createdAt,value
2019-05-01T00:00:29.121Z,63.00
2019-05-01T00:03:18.299Z,56.00
2019-05-01T00:06:00.239Z,49.70
2019-05-01T00:08:29.867Z,50.50
2019-05-01T00:10:59.256Z,51.90
2019-05-01T00:13:28.900Z,54.60
2019-05-01T00:15:58.755Z,57.00
2019-05-01T00:18:28.168Z,59.40
2019-05-01T00:20:57.649Z,61.00
2019-05-01T00:23:26.999Z,63.40
2019-05-01T00:25:56.386Z,64.50
2019-05-01T00:28:25.864Z,65.40
2019-05-01T00:30:55.279Z,66.70
2019-05-01T00:33:24.663Z,68.10
2019-05-01T00:35:54.295Z,68.90
2019-05-01T00:38:23.726Z,69.80
2019-05-01T00:40:53.275Z,70.70
2019-05-01T00:43:23.434Z,71.60
2019-05-01T00:45:52.802Z,72.30
2019-05-01T00:48:22.263Z,72.70
2019-05-01T00:50:51.903Z,73.60
2019-05-01T00:53:22.374Z,74.10
2019-05-01T00:56:00.475Z,75.30
2019-05-01T00:58:34.490Z,75.10
2019-05-01T01:01:05.779Z,76.00
2019-05-01T01:03:35.210Z,76.10
2019-05-01T01:06:05.435Z,77.00
2019-05-01T01:08:34.981Z,76.90
2019-05-01T01:11:04.468Z,78.40
2019-05-01T01:13:34.135Z,78.20
2019-05-01T01:16:06.522Z,79.10
2019-05-01T01:18:36.098Z,79.50
2019-05-01T01:21:05.523Z,80.10
2019-05-01T01:23:35.776Z,80.60
2019-05-01T01:26:05.239Z,80.80
2019-05-01T01:28:34.796Z,81.60
2019-05-01T01:31:04.353Z,82.70
2019-05-01T01:33:34.459Z,83.60
2019-05-01T01:36:03.925Z,84.10
2019-05-01T01:38:33.539Z,84.70
2019-05-01T01:41:04.614Z,85.20
2019-05-01T01:43:41.810Z,85.60
2019-05-01T01:46:18.917Z,86.20
2019-05-01T01:48:49.973Z,86.50
2019-05-01T01:51:19.953Z,86.90
2019-05-01T01:53:51.160Z,88.30
2019-05-01T01:56:20.651Z,89.00
2019-05-01T01:58:52.370Z,89.60
2019-05-01T02:01:32.512Z,90.10
2019-05-01T02:04:09.491Z,90.20
2019-05-01T02:06:39.100Z,90.50
2019-05-01T02:09:09.438Z,90.60
2019-05-01T02:11:39.179Z,90.80
2019-05-01T02:14:08.543Z,90.90
2019-05-01T02:16:38.044Z,91.10
2019-05-01T02:19:08.776Z,91.10
2019-05-01T02:21:39.487Z,91.20
2019-05-01T02:24:08.978Z,91.40
2019-05-01T02:26:56.179Z,91.60
2019-05-01T02:29:27.380Z,91.90
2019-05-01T02:31:58.723Z,92.10
2019-05-01T02:34:28.526Z,92.00
2019-05-01T02:37:01.121Z,92.40
2019-05-01T02:39:32.580Z,92.70
2019-05-01T02:42:03.901Z,92.80
2019-05-01T02:44:36.410Z,92.90
2019-05-01T02:47:09.280Z,93.20
2019-05-01T02:49:41.768Z,93.60
2019-05-01T02:52:12.955Z,93.90
2019-05-01T02:54:45.919Z,94.10
2019-05-01T02:57:20.887Z,94.30
2019-05-01T02:59:52.751Z,94.60
2019-05-01T03:02:25.348Z,94.80
2019-05-01T03:04:57.509Z,95.10
2019-05-01T03:07:30.019Z,95.30
2019-05-01T03:10:01.701Z,95.40
2019-05-01T03:12:32.344Z,95.70
2019-05-01T03:15:06.080Z,95.90
2019-05-01T03:17:51.324Z,96.00
2019-05-01T03:20:31.534Z,96.20
2019-05-01T03:23:17.845Z,96.50
2019-05-01T03:25:49.763Z,96.70
2019-05-01T03:28:20.974Z,96.80
2019-05-01T03:30:50.425Z,97.00
2019-05-01T03:33:19.903Z,97.10
2019-05-01T03:35:49.431Z,97.00
2019-05-01T03:38:19.953Z,97.20
2019-05-01T03:40:49.755Z,97.90
2019-05-01T03:43:19.682Z,98.10
2019-05-01T03:45:51.244Z,98.30
2019-05-01T03:48:20.947Z,98.40
2019-05-01T03:50:50.959Z,98.60
2019-05-01T03:53:20.468Z,98.70
2019-05-01T03:55:50.480Z,98.80
2019-05-01T03:58:19.985Z,98.90
2019-05-01T04:00:57.059Z,99.10
2019-05-01T04:03:31.902Z,99.10
2019-05-01T04:06:00.603Z,99.20
2019-05-01T04:08:29.968Z,99.60
2019-05-01T04:11:00.690Z,99.90
2019-05-01T04:13:30.127Z,99.90
2019-05-01T04:15:59.916Z,99.90
2019-05-01T04:18:29.646Z,99.90
2019-05-01T04:20:59.116Z,99.90
2019-05-01T04:23:35.540Z,99.90
2019-05-01T04:26:04.927Z,99.90
2019-05-01T04:28:39.306Z,99.90
2019-05-01T04:31:10.203Z,99.90
2019-05-01T04:33:41.148Z,99.90
2019-05-01T04:36:13.241Z,99.90
2019-05-01T04:38:43.487Z,99.90
2019-05-01T04:41:12.904Z,99.90
2019-05-01T04:43:42.396Z,99.90
2019-05-01T04:46:12.612Z,99.90
2019-05-01T04:48:42.633Z,99.90
2019-05-01T04:51:12.191Z,99.90
2019-05-01T04:53:42.440Z,99.90
2019-05-01T04:56:12.182Z,99.90
2019-05-01T04:58:41.860Z,99.90
2019-05-01T05:01:12.327Z,99.90
2019-05-01T05:03:41.912Z,99.90
2019-05-01T05:06:12.501Z,99.90
2019-05-01T05:08:43.176Z,99.90
2019-05-01T05:11:14.342Z,99.90
2019-05-01T05:14:07.319Z,99.90
2019-05-01T05:16:54.472Z,99.90
2019-05-01T05:19:24.795Z,99.90
2019-05-01T05:21:54.361Z,99.90
2019-05-01T05:24:25.263Z,99.90
2019-05-01T05:26:55.986Z,99.90
2019-05-01T05:29:26.312Z,99.90
2019-05-01T05:31:57.799Z,99.90
2019-05-01T05:34:29.364Z,99.90
2019-05-01T05:37:02.554Z,99.90
2019-05-01T05:39:35.279Z,99.90
2019-05-01T05:42:08.466Z,99.90
2019-05-01T05:44:38.329Z,99.90
2019-05-01T05:47:08.933Z,99.40
2019-05-01T05:49:38.486Z,99.40
2019-05-01T05:52:15.416Z,98.80
2019-05-01T05:55:09.070Z,99.10
2019-05-01T06:00:12.259Z,97.90
2019-05-01T06:02:46.026Z,98.10
2019-05-01T06:05:19.303Z,97.70
2019-05-01T06:08:09.004Z,97.50
2019-05-01T06:11:01.252Z,97.40
2019-05-01T06:13:52.618Z,97.50
2019-05-01T06:16:40.450Z,97.90
2019-05-01T06:19:16.351Z,97.60
2019-05-01T06:22:04.938Z,97.40
2019-05-01T06:24:40.691Z,97.40
2019-05-01T06:27:13.843Z,97.60
2019-05-01T06:29:40.823Z,97.80
2019-05-01T06:32:12.017Z,97.80
2019-05-01T06:34:42.776Z,97.60
2019-05-01T06:37:12.249Z,97.60
2019-05-01T06:39:42.914Z,97.70
2019-05-01T06:42:14.975Z,97.40
2019-05-01T06:44:46.574Z,97.10
2019-05-01T06:47:17.841Z,97.00
2019-05-01T06:50:01.142Z,96.70
2019-05-01T06:52:29.429Z,96.50
2019-05-01T06:54:59.779Z,96.60
2019-05-01T06:57:29.740Z,96.40
2019-05-01T07:00:03.117Z,95.90
2019-05-01T07:02:35.116Z,95.40
2019-05-01T07:05:09.198Z,95.10
2019-05-01T07:07:38.967Z,94.70
2019-05-01T07:10:08.674Z,94.90
2019-05-01T07:12:38.397Z,94.90
2019-05-01T07:15:08.294Z,95.50
2019-05-01T07:17:38.006Z,96.50
2019-05-01T07:20:12.031Z,96.40
2019-05-01T07:22:42.210Z,97.10
2019-05-01T07:25:12.081Z,96.90
2019-05-01T07:27:42.572Z,97.10
2019-05-01T07:30:19.675Z,96.50
2019-05-01T07:32:47.825Z,96.30
2019-05-01T07:35:17.685Z,96.30
2019-05-01T07:37:47.162Z,95.90
2019-05-01T07:40:21.215Z,95.50
2019-05-01T07:42:57.456Z,94.80
2019-05-01T07:45:31.570Z,93.80
2019-05-01T07:48:05.620Z,93.80
2019-05-01T07:50:32.863Z,94.20
2019-05-01T07:53:08.227Z,94.20
2019-05-01T07:55:52.615Z,94.40
2019-05-01T07:58:21.618Z,94.80
2019-05-01T08:01:05.903Z,94.80
2019-05-01T08:03:37.962Z,95.00
2019-05-01T08:06:21.503Z,94.50
2019-05-01T08:12:00.263Z,93.10
2019-05-01T08:17:26.492Z,92.70
2019-05-01T08:20:09.936Z,92.00
2019-05-01T08:22:39.082Z,91.10
2019-05-01T08:25:08.940Z,90.40
2019-05-01T08:27:42.684Z,90.90
2019-05-01T08:30:30.574Z,91.30
2019-05-01T08:33:09.833Z,91.40
2019-05-01T08:35:41.752Z,90.80
2019-05-01T08:38:11.092Z,90.10
2019-05-01T08:40:46.099Z,89.50
2019-05-01T08:43:20.576Z,87.50
2019-05-01T08:46:11.819Z,87.40
2019-05-01T08:48:56.294Z,88.00
2019-05-01T08:51:34.733Z,86.50
2019-05-01T08:54:03.349Z,85.80
2019-05-01T08:56:37.929Z,86.50
2019-05-01T08:59:11.569Z,87.40
2019-05-01T09:01:50.195Z,89.00
2019-05-01T09:04:25.286Z,88.50
2019-05-01T09:06:55.535Z,88.80
2019-05-01T09:09:24.942Z,89.70
2019-05-01T09:11:54.760Z,89.20
2019-05-01T09:14:24.949Z,88.80
2019-05-01T09:16:54.540Z,87.70
2019-05-01T09:19:23.900Z,85.90
2019-05-01T09:21:53.783Z,84.00
2019-05-01T09:24:29.565Z,83.50
2019-05-01T09:27:01.790Z,84.20
2019-05-01T09:29:46.957Z,82.60
2019-05-01T09:32:18.779Z,82.20
2019-05-01T09:34:49.224Z,83.10
2019-05-01T09:37:18.593Z,83.70
2019-05-01T09:39:50.062Z,83.40
2019-05-01T09:42:23.806Z,83.40
2019-05-01T09:44:59.596Z,82.30
2019-05-01T09:47:33.548Z,82.60
2019-05-01T09:50:12.427Z,82.50
2019-05-01T09:52:59.714Z,82.40
2019-05-01T09:55:32.338Z,82.00
2019-05-01T09:58:03.035Z,81.40
2019-05-01T10:00:33.261Z,79.90
2019-05-01T10:03:02.607Z,78.90
2019-05-01T10:05:32.047Z,77.50
2019-05-01T10:08:04.042Z,78.00
2019-05-01T10:10:32.525Z,77.80
2019-05-01T10:13:01.853Z,77.20
2019-05-01T10:15:32.532Z,77.00
2019-05-01T10:18:03.037Z,77.80
2019-05-01T10:20:32.473Z,79.60
2019-05-01T10:23:01.886Z,79.80
2019-05-01T10:25:31.251Z,80.00
2019-05-01T10:28:07.122Z,79.50
2019-05-01T10:30:44.408Z,77.60
2019-05-01T10:33:18.090Z,77.10
2019-05-01T10:35:59.324Z,74.50
2019-05-01T10:38:29.720Z,74.50
2019-05-01T10:40:59.054Z,74.80
2019-05-01T10:43:29.518Z,75.90
2019-05-01T10:45:58.860Z,76.30
2019-05-01T10:48:29.463Z,76.20
2019-05-01T10:50:59.795Z,75.30
2019-05-01T10:53:29.187Z,75.00
2019-05-01T10:55:58.877Z,75.50
2019-05-01T10:58:30.201Z,76.30
2019-05-01T11:01:10.089Z,76.60
2019-05-01T11:03:42.693Z,76.40
2019-05-01T11:06:12.313Z,75.00
2019-05-01T11:08:41.690Z,73.00
2019-05-01T11:11:11.063Z,71.10
2019-05-01T11:13:40.525Z,69.50
2019-05-01T11:16:09.878Z,71.40
2019-05-01T11:18:39.329Z,71.50
2019-05-01T11:21:09.087Z,70.60
2019-05-01T11:23:40.156Z,70.90
2019-05-01T11:26:09.616Z,69.50
2019-05-01T11:28:38.964Z,69.00
2019-05-01T11:31:11.509Z,71.80
2019-05-01T11:33:57.538Z,73.00
2019-05-01T11:36:43.942Z,73.20
2019-05-01T11:39:20.821Z,73.20
2019-05-01T11:41:54.339Z,71.80
2019-05-01T11:48:16.006Z,70.90
2019-05-01T11:50:45.433Z,71.00
2019-05-01T11:53:14.835Z,69.60
2019-05-01T11:55:44.286Z,68.20
2019-05-01T11:58:13.663Z,67.10
2019-05-01T12:00:44.428Z,67.00
2019-05-01T12:03:13.780Z,67.40
2019-05-01T12:05:44.414Z,67.20
2019-05-01T12:08:16.075Z,66.60
2019-05-01T12:10:46.754Z,65.70
2019-05-01T12:13:17.453Z,64.70
2019-05-01T12:15:48.497Z,64.10
2019-05-01T12:18:17.853Z,63.00
2019-05-01T12:20:47.252Z,62.80
2019-05-01T12:23:16.688Z,62.00
2019-05-01T12:25:47.375Z,62.60
2019-05-01T12:28:18.261Z,59.60
2019-05-01T12:30:47.756Z,59.50
2019-05-01T12:33:17.135Z,59.00
2019-05-01T12:35:48.944Z,58.30
2019-05-01T12:38:21.727Z,58.40
2019-05-01T12:41:09.230Z,58.80
2019-05-01T12:43:39.308Z,59.70
2019-05-01T12:46:10.300Z,60.50
2019-05-01T12:48:43.100Z,61.70
2019-05-01T12:51:12.538Z,62.80
2019-05-01T12:53:44.653Z,62.20
2019-05-01T12:56:15.764Z,61.40
2019-05-01T12:58:48.456Z,60.80
2019-05-01T13:01:19.095Z,62.10
2019-05-01T13:03:49.700Z,62.60
2019-05-01T13:06:19.201Z,63.20
2019-05-01T13:08:49.644Z,64.40
2019-05-01T13:11:19.102Z,63.90
2019-05-01T13:13:48.657Z,63.20
2019-05-01T13:16:18.035Z,63.10
2019-05-01T13:18:47.393Z,62.30
2019-05-01T13:21:18.134Z,60.50
2019-05-01T13:23:47.614Z,60.30
2019-05-01T13:26:18.782Z,60.90
2019-05-01T13:28:50.364Z,58.60
2019-05-01T13:31:35.077Z,58.40
2019-05-01T13:34:04.815Z,57.80
2019-05-01T13:36:34.275Z,57.70
2019-05-01T13:39:05.307Z,55.10
2019-05-01T13:41:35.275Z,55.40
2019-05-01T13:44:04.985Z,54.60
2019-05-01T13:46:36.183Z,54.20
2019-05-01T13:49:05.929Z,52.80
2019-05-01T13:51:39.019Z,51.80
2019-05-01T13:54:09.883Z,49.50
2019-05-01T13:56:39.347Z,50.00
2019-05-01T13:59:11.110Z,50.20
2019-05-01T14:01:42.082Z,49.40
2019-05-01T14:04:13.122Z,49.00
2019-05-01T14:06:45.413Z,49.60
2019-05-01T14:09:17.988Z,47.50
2019-05-01T14:11:47.339Z,46.00
2019-05-01T14:14:16.683Z,45.00
2019-05-01T14:16:46.596Z,43.50
2019-05-01T14:19:16.788Z,44.00
2019-05-01T14:21:48.809Z,43.90
2019-05-01T14:24:19.970Z,43.60
2019-05-01T14:26:49.373Z,41.30
2019-05-01T14:29:18.801Z,40.30
2019-05-01T14:31:48.143Z,38.30
2019-05-01T14:34:18.629Z,37.20
2019-05-01T14:36:48.031Z,39.10
2019-05-01T14:39:18.934Z,39.00
2019-05-01T14:41:48.317Z,36.20
2019-05-01T14:44:17.738Z,35.90
2019-05-01T14:46:48.537Z,33.40
2019-05-01T14:49:17.882Z,30.80
2019-05-01T14:51:47.696Z,31.50
2019-05-01T14:54:17.100Z,32.70
2019-05-01T14:56:46.502Z,32.80
2019-05-01T14:59:15.936Z,31.00
2019-05-01T15:01:47.288Z,30.70
2019-05-01T15:04:16.972Z,31.40
2019-05-01T15:06:46.422Z,33.40
2019-05-01T15:09:17.564Z,32.40
2019-05-01T15:11:48.521Z,31.50
2019-05-01T15:14:34.546Z,30.50
2019-05-01T15:17:08.880Z,28.80
2019-05-01T15:19:39.972Z,27.50
2019-05-01T15:22:09.397Z,28.10
2019-05-01T15:24:39.407Z,28.90
2019-05-01T15:27:10.216Z,33.20
2019-05-01T15:29:40.947Z,38.00
2019-05-01T15:32:11.258Z,42.10
2019-05-01T15:34:40.901Z,45.50
2019-05-01T15:37:10.319Z,48.50
2019-05-01T15:39:41.448Z,50.80
2019-05-01T15:42:19.117Z,51.00
2019-05-01T15:44:48.584Z,52.20
2019-05-01T15:47:17.963Z,52.60
2019-05-01T15:49:50.356Z,54.00
2019-05-01T15:52:20.464Z,54.30
2019-05-01T15:54:51.756Z,54.20
2019-05-01T15:57:21.120Z,54.40
2019-05-01T15:59:50.764Z,55.20
2019-05-01T16:02:22.068Z,55.70
2019-05-01T16:04:51.402Z,56.00
2019-05-01T16:07:21.375Z,56.70
2019-05-01T16:09:50.787Z,57.30
2019-05-01T16:12:34.634Z,57.30
2019-05-01T16:15:08.152Z,54.70
2019-05-01T16:17:37.717Z,54.20
2019-05-01T16:20:08.048Z,54.40
2019-05-01T16:22:37.506Z,54.80
2019-05-01T16:25:07.449Z,55.50
2019-05-01T16:27:36.794Z,57.10
2019-05-01T16:30:06.962Z,57.30
2019-05-01T16:32:37.724Z,57.80
2019-05-01T16:35:09.148Z,58.40
2019-05-01T16:37:40.857Z,58.60
2019-05-01T16:40:29.684Z,58.70
2019-05-01T16:42:59.189Z,58.90
2019-05-01T16:45:28.641Z,59.00
2019-05-01T16:47:58.659Z,58.00
2019-05-01T16:50:28.275Z,55.80
2019-05-01T16:53:05.124Z,55.90
2019-05-01T16:55:34.967Z,52.50
2019-05-01T16:58:06.157Z,51.50
2019-05-01T17:00:56.472Z,51.70
2019-05-01T17:03:27.659Z,53.00
2019-05-01T17:06:14.864Z,54.10
2019-05-01T17:08:45.915Z,54.00
2019-05-01T17:11:15.413Z,54.60
2019-05-01T17:13:46.126Z,54.50
2019-05-01T17:16:15.896Z,54.50
2019-05-01T17:18:45.272Z,54.30
2019-05-01T17:21:14.755Z,54.60
2019-05-01T17:23:45.310Z,54.50
2019-05-01T17:26:16.275Z,53.60
2019-05-01T17:28:45.675Z,53.60
2019-05-01T17:31:15.136Z,54.00
2019-05-01T17:33:44.538Z,54.50
2019-05-01T17:36:13.929Z,54.70
2019-05-01T17:38:49.667Z,55.20
2019-05-01T17:41:14.824Z,55.60
2019-05-01T17:43:44.672Z,56.10
2019-05-01T17:46:15.206Z,56.50
2019-05-01T17:48:44.619Z,57.40
2019-05-01T17:51:15.432Z,59.30
2019-05-01T17:53:47.418Z,61.30
2019-05-01T17:56:21.848Z,63.60
2019-05-01T17:58:51.641Z,65.20
2019-05-01T18:01:36.390Z,67.00
2019-05-01T18:04:26.770Z,68.40
2019-05-01T18:06:56.167Z,69.50
2019-05-01T18:09:25.945Z,70.30
2019-05-01T18:11:55.394Z,70.90
2019-05-01T18:14:26.231Z,71.50
2019-05-01T18:16:56.328Z,72.10
2019-05-01T18:19:26.474Z,72.80
2019-05-01T18:21:57.644Z,73.00
2019-05-01T18:24:44.918Z,74.00
2019-05-01T18:27:20.445Z,74.60
2019-05-01T18:29:51.740Z,75.30
2019-05-01T18:32:27.267Z,75.70
2019-05-01T18:34:59.063Z,76.40
2019-05-01T18:37:35.121Z,76.90
2019-05-01T18:40:09.540Z,77.50
2019-05-01T18:42:39.098Z,77.70
2019-05-01T18:45:12.225Z,78.20
2019-05-01T18:47:43.980Z,78.40
2019-05-01T18:50:13.713Z,78.50
2019-05-01T18:52:43.428Z,78.70
2019-05-01T18:55:13.470Z,79.30
2019-05-01T18:57:44.585Z,79.70
2019-05-01T19:00:14.419Z,81.00
2019-05-01T19:02:44.034Z,80.40
2019-05-01T19:05:14.167Z,80.70
2019-05-01T19:07:43.982Z,81.00
2019-05-01T19:10:13.805Z,81.40
2019-05-01T19:12:43.728Z,81.80
2019-05-01T19:15:15.058Z,82.40
2019-05-01T19:17:45.097Z,82.70
2019-05-01T19:20:15.469Z,83.10
2019-05-01T19:22:45.641Z,83.60
2019-05-01T19:25:17.875Z,83.90
2019-05-01T19:27:47.830Z,84.10
2019-05-01T19:30:18.744Z,84.60
2019-05-01T19:32:50.440Z,84.70
2019-05-01T19:35:23.642Z,84.80
2019-05-01T19:37:52.927Z,85.00
2019-05-01T19:40:30.794Z,85.20
2019-05-01T19:42:58.349Z,85.20
2019-05-01T19:45:29.614Z,85.50
2019-05-01T19:47:59.764Z,85.80
2019-05-01T19:50:30.011Z,85.90
2019-05-01T19:53:00.265Z,85.80
2019-05-01T19:55:30.418Z,85.90
2019-05-01T19:58:00.802Z,86.20
2019-05-01T20:00:51.214Z,87.00
2019-05-01T20:03:22.215Z,86.50
2019-05-01T20:05:52.298Z,86.70
2019-05-01T20:08:22.414Z,86.80
2019-05-01T20:10:52.924Z,87.10
2019-05-01T20:13:23.059Z,87.30
2019-05-01T20:15:53.134Z,87.50
2019-05-01T20:18:23.149Z,87.90
2019-05-01T20:20:52.835Z,88.20
2019-05-01T20:23:26.075Z,88.30
2019-05-01T20:25:55.887Z,88.60
2019-05-01T20:28:26.095Z,88.70
2019-05-01T20:30:55.844Z,89.00
2019-05-01T20:33:27.420Z,90.00
2019-05-01T20:36:00.392Z,89.90
2019-05-01T20:38:29.484Z,90.00
2019-05-01T20:40:59.840Z,90.10
2019-05-01T20:43:29.270Z,90.20
2019-05-01T20:45:58.801Z,90.20
2019-05-01T20:48:28.586Z,90.20
2019-05-01T20:50:58.650Z,90.40
2019-05-01T20:53:28.007Z,90.50
2019-05-01T20:56:02.984Z,90.60
2019-05-01T20:58:32.416Z,90.70
2019-05-01T21:01:03.458Z,90.70
2019-05-01T21:03:32.910Z,90.90
2019-05-01T21:06:17.042Z,91.00
2019-05-01T21:08:48.166Z,91.20
2019-05-01T21:11:19.168Z,91.20
2019-05-01T21:13:48.547Z,91.80
2019-05-01T21:16:17.993Z,91.70
2019-05-01T21:18:47.417Z,91.70
2019-05-01T21:21:16.831Z,91.80
2019-05-01T21:23:48.093Z,91.80
2019-05-01T21:26:17.495Z,91.90
2019-05-01T21:28:46.976Z,92.00
2019-05-01T21:31:16.390Z,92.10
2019-05-01T21:33:50.394Z,92.30
2019-05-01T21:36:18.042Z,92.40
2019-05-01T21:38:47.516Z,92.50
2019-05-01T21:41:18.409Z,92.60
2019-05-01T21:43:48.916Z,92.70
2019-05-01T21:46:18.377Z,92.80
2019-05-01T21:48:47.727Z,92.90
2019-05-01T21:51:17.112Z,93.10
2019-05-01T21:53:46.649Z,93.20
2019-05-01T21:56:16.080Z,93.50
2019-05-01T21:58:45.494Z,93.70
2019-05-01T22:01:14.982Z,93.90
2019-05-01T22:03:44.389Z,93.90
2019-05-01T22:06:15.297Z,94.20
2019-05-01T22:08:45.308Z,94.20
2019-05-01T22:11:14.766Z,94.30
2019-05-01T22:13:44.216Z,94.30
2019-05-01T22:16:22.270Z,94.40
2019-05-01T22:19:10.132Z,94.50
2019-05-01T22:21:42.683Z,94.60
2019-05-01T22:24:19.937Z,94.80
2019-05-01T22:26:50.939Z,94.90
2019-05-01T22:29:22.151Z,95.00
2019-05-01T22:31:57.490Z,95.20
2019-05-01T22:34:32.994Z,95.40
2019-05-01T22:37:02.354Z,95.50
2019-05-01T22:39:33.416Z,95.90
2019-05-01T22:42:02.740Z,96.00
2019-05-01T22:44:32.105Z,96.10
2019-05-01T22:47:01.538Z,96.10
2019-05-01T22:49:32.218Z,96.00
2019-05-01T22:52:01.624Z,96.00
2019-05-01T22:54:30.979Z,96.10
2019-05-01T22:57:00.366Z,96.40
2019-05-01T22:59:29.735Z,96.20
2019-05-01T23:02:12.848Z,96.30
2019-05-01T23:04:42.213Z,96.40
2019-05-01T23:07:11.662Z,96.50
2019-05-01T23:09:43.558Z,96.70
2019-05-01T23:12:12.988Z,96.90
2019-05-01T23:14:42.404Z,97.10
2019-05-01T23:17:16.278Z,96.90
2019-05-01T23:19:48.599Z,97.00
2019-05-01T23:22:17.931Z,97.20
2019-05-01T23:24:47.258Z,97.30
2019-05-01T23:27:16.614Z,97.30
2019-05-01T23:29:45.939Z,97.30
2019-05-01T23:32:15.338Z,97.30
2019-05-01T23:34:44.760Z,97.40
2019-05-01T23:37:14.593Z,97.40
2019-05-01T23:39:44.029Z,97.50
2019-05-01T23:42:13.421Z,97.60
2019-05-01T23:44:44.149Z,97.70
2019-05-01T23:47:15.435Z,97.70
2019-05-01T23:49:47.830Z,97.60
2019-05-01T23:52:16.253Z,97.70
2019-05-01T23:54:47.218Z,97.60
2019-05-01T23:57:18.846Z,97.80
2019-05-01T23:59:47.606Z,97.80
